sensor_id;sensor_type;location;lat;lon;timestamp;pressure;altitude;pressure_sealevel;temperature;humidity
46710;BME280;32442;51.514;-0.178;2023-04-02T00:04:33;101538.75;;;17.20;47.99
46710;BME280;32442;51.514;-0.178;2023-04-02T00:09:41;101542.38;;;17.16;48.33
46710;BME280;32442;51.514;-0.178;2023-04-02T00:12:10;101548.78;;;17.16;48.20
46710;BME280;32442;51.514;-0.178;2023-04-02T00:14:44;101557.16;;;17.16;48.29
46710;BME280;32442;51.514;-0.178;2023-04-02T00:17:11;101559.63;;;17.13;48.06
46710;BME280;32442;51.514;-0.178;2023-04-02T00:22:11;101578.06;;;17.14;48.39
46710;BME280;32442;51.514;-0.178;2023-04-02T00:24:41;101581.97;;;17.13;48.37
46710;BME280;32442;51.514;-0.178;2023-04-02T00:27:09;101581.16;;;17.12;48.32
46710;BME280;32442;51.514;-0.178;2023-04-02T00:32:16;101579.19;;;17.13;48.27
46710;BME280;32442;51.514;-0.178;2023-04-02T00:34:44;101577.56;;;17.17;47.89
46710;BME280;32442;51.514;-0.178;2023-04-02T00:37:15;101580.59;;;17.15;48.02
46710;BME280;32442;51.514;-0.178;2023-04-02T00:39:43;101581.72;;;17.14;48.08
46710;BME280;32442;51.514;-0.178;2023-04-02T00:42:12;101582.56;;;17.15;48.11
46710;BME280;32442;51.514;-0.178;2023-04-02T00:44:44;101589.53;;;17.12;48.23
46710;BME280;32442;51.514;-0.178;2023-04-02T00:49:49;101600.69;;;17.12;47.87
46710;BME280;32442;51.514;-0.178;2023-04-02T00:52:20;101597.06;;;17.12;48.41
46710;BME280;32442;51.514;-0.178;2023-04-02T00:54:50;101608.22;;;17.12;48.09
46710;BME280;32442;51.514;-0.178;2023-04-02T00:57:19;101614.34;;;17.09;48.18
46710;BME280;32442;51.514;-0.178;2023-04-02T00:59:56;101608.50;;;17.10;47.93
46710;BME280;32442;51.514;-0.178;2023-04-02T01:02:29;101614.34;;;17.09;48.02
46710;BME280;32442;51.514;-0.178;2023-04-02T01:04:58;101613.22;;;17.10;48.23
46710;BME280;32442;51.514;-0.178;2023-04-02T01:07:30;101619.41;;;17.12;48.13
46710;BME280;32442;51.514;-0.178;2023-04-02T01:12:45;101629.44;;;17.08;47.96
46710;BME280;32442;51.514;-0.178;2023-04-02T01:17:59;101629.13;;;17.09;48.14
46710;BME280;32442;51.514;-0.178;2023-04-02T01:23:10;101635.25;;;17.06;48.04
46710;BME280;32442;51.514;-0.178;2023-04-02T01:28:13;101637.22;;;17.06;48.35
46710;BME280;32442;51.514;-0.178;2023-04-02T01:30:46;101637.22;;;17.06;48.39
46710;BME280;32442;51.514;-0.178;2023-04-02T01:33:17;101649.22;;;17.06;48.38
46710;BME280;32442;51.514;-0.178;2023-04-02T01:35:45;101647.53;;;17.05;48.39
46710;BME280;32442;51.514;-0.178;2023-04-02T01:38:18;101652.28;;;17.05;48.20
46710;BME280;32442;51.514;-0.178;2023-04-02T01:40:50;101658.41;;;17.02;48.16
46710;BME280;32442;51.514;-0.178;2023-04-02T01:45:49;101664.53;;;17.04;48.14
46710;BME280;32442;51.514;-0.178;2023-04-02T01:48:21;101669.88;;;17.05;48.22
46710;BME280;32442;51.514;-0.178;2023-04-02T01:50:50;101667.34;;;17.04;48.27
46710;BME280;32442;51.514;-0.178;2023-04-02T01:53:20;101667.03;;;17.00;48.45
46710;BME280;32442;51.514;-0.178;2023-04-02T01:58:17;101672.34;;;17.02;48.22
46710;BME280;32442;51.514;-0.178;2023-04-02T02:00:47;101678.50;;;17.04;48.18
46710;BME280;32442;51.514;-0.178;2023-04-02T02:03:16;101680.16;;;17.00;48.05
46710;BME280;32442;51.514;-0.178;2023-04-02T02:05:44;101678.50;;;16.99;48.19
46710;BME280;32442;51.514;-0.178;2023-04-02T02:08:18;101680.19;;;17.05;48.35
46710;BME280;32442;51.514;-0.178;2023-04-02T02:10:47;101688.84;;;17.03;48.27
46710;BME280;32442;51.514;-0.178;2023-04-02T02:13:14;101692.16;;;17.00;48.14
46710;BME280;32442;51.514;-0.178;2023-04-02T02:15:41;101684.63;;;17.01;48.03
46710;BME280;32442;51.514;-0.178;2023-04-02T02:18:09;101681.00;;;17.00;48.43
46710;BME280;32442;51.514;-0.178;2023-04-02T02:20:37;101689.38;;;17.00;48.23
46710;BME280;32442;51.514;-0.178;2023-04-02T02:23:03;101694.66;;;16.97;48.20
46710;BME280;32442;51.514;-0.178;2023-04-02T02:25:32;101689.66;;;16.99;48.47
46710;BME280;32442;51.514;-0.178;2023-04-02T02:30:29;101706.13;;;17.00;48.22
46710;BME280;32442;51.514;-0.178;2023-04-02T02:33:01;101706.66;;;16.97;48.24
46710;BME280;32442;51.514;-0.178;2023-04-02T02:35:38;101702.22;;;17.01;48.15
46710;BME280;32442;51.514;-0.178;2023-04-02T02:38:21;101714.78;;;16.99;48.00
46710;BME280;32442;51.514;-0.178;2023-04-02T02:40:52;101716.13;;;16.96;48.41
46710;BME280;32442;51.514;-0.178;2023-04-02T02:43:20;101706.66;;;16.97;48.43
46710;BME280;32442;51.514;-0.178;2023-04-02T02:45:47;101724.25;;;16.98;48.42
46710;BME280;32442;51.514;-0.178;2023-04-02T02:48:16;101724.50;;;16.96;48.25
46710;BME280;32442;51.514;-0.178;2023-04-02T02:50:44;101729.00;;;16.97;48.29
46710;BME280;32442;51.514;-0.178;2023-04-02T02:53:15;101731.25;;;17.00;48.45
46710;BME280;32442;51.514;-0.178;2023-04-02T02:55:42;101735.97;;;17.00;48.24
46710;BME280;32442;51.514;-0.178;2023-04-02T02:58:10;101749.44;;;17.03;47.92
46710;BME280;32442;51.514;-0.178;2023-04-02T03:00:40;101747.13;;;17.00;48.43
46710;BME280;32442;51.514;-0.178;2023-04-02T03:03:12;101748.78;;;16.96;48.28
46710;BME280;32442;51.514;-0.178;2023-04-02T03:05:40;101761.63;;;16.97;48.25
46710;BME280;32442;51.514;-0.178;2023-04-02T03:08:11;101752.66;;;16.95;48.39
46710;BME280;32442;51.514;-0.178;2023-04-02T03:10:42;101762.22;;;16.99;48.36
46710;BME280;32442;51.514;-0.178;2023-04-02T03:18:30;101775.59;;;16.97;48.30
46710;BME280;32442;51.514;-0.178;2023-04-02T03:21:04;101779.78;;;16.99;48.04
46710;BME280;32442;51.514;-0.178;2023-04-02T03:23:35;101770.59;;;16.99;48.24
46710;BME280;32442;51.514;-0.178;2023-04-02T03:26:06;101779.53;;;17.01;48.21
46710;BME280;32442;51.514;-0.178;2023-04-02T03:28:35;101782.59;;;16.99;48.13
46710;BME280;32442;51.514;-0.178;2023-04-02T03:31:05;101779.22;;;16.97;48.37
46710;BME280;32442;51.514;-0.178;2023-04-02T03:33:37;101795.38;;;16.95;48.22
46710;BME280;32442;51.514;-0.178;2023-04-02T03:38:48;101793.19;;;16.97;48.11
46710;BME280;32442;51.514;-0.178;2023-04-02T03:41:18;101797.69;;;16.98;48.14
46710;BME280;32442;51.514;-0.178;2023-04-02T03:43:48;101797.09;;;16.96;48.00
46710;BME280;32442;51.514;-0.178;2023-04-02T03:46:21;101807.94;;;16.93;48.52
46710;BME280;32442;51.514;-0.178;2023-04-02T03:51:31;101814.69;;;16.97;48.35
46710;BME280;32442;51.514;-0.178;2023-04-02T03:54:00;101812.97;;;16.96;48.20
46710;BME280;32442;51.514;-0.178;2023-04-02T03:56:28;101816.06;;;16.94;48.34
46710;BME280;32442;51.514;-0.178;2023-04-02T04:01:35;101827.53;;;16.98;48.01
46710;BME280;32442;51.514;-0.178;2023-04-02T04:04:06;101823.06;;;16.97;48.30
46710;BME280;32442;51.514;-0.178;2023-04-02T04:06:36;101835.00;;;16.92;48.44
46710;BME280;32442;51.514;-0.178;2023-04-02T04:09:08;101836.94;;;16.92;48.33
46710;BME280;32442;51.514;-0.178;2023-04-02T04:11:38;101839.50;;;16.93;48.32
46710;BME280;32442;51.514;-0.178;2023-04-02T04:14:07;101843.38;;;16.92;48.03
46710;BME280;32442;51.514;-0.178;2023-04-02T04:16:40;101850.38;;;16.95;48.01
46710;BME280;32442;51.514;-0.178;2023-04-02T04:21:40;101852.06;;;16.96;48.06
46710;BME280;32442;51.514;-0.178;2023-04-02T04:24:15;101854.28;;;16.94;48.37
46710;BME280;32442;51.514;-0.178;2023-04-02T04:26:46;101852.84;;;16.91;48.10
46710;BME280;32442;51.514;-0.178;2023-04-02T04:31:55;101859.28;;;16.92;48.29
46710;BME280;32442;51.514;-0.178;2023-04-02T04:34:27;101874.09;;;16.92;48.19
46710;BME280;32442;51.514;-0.178;2023-04-02T04:36:58;101880.75;;;16.91;48.21
46710;BME280;32442;51.514;-0.178;2023-04-02T04:39:30;101886.34;;;16.91;48.21
46710;BME280;32442;51.514;-0.178;2023-04-02T04:42:02;101886.88;;;16.88;48.07
46710;BME280;32442;51.514;-0.178;2023-04-02T04:44:36;101881.81;;;16.85;48.56
46710;BME280;32442;51.514;-0.178;2023-04-02T04:49:42;101884.94;;;16.88;48.16
46710;BME280;32442;51.514;-0.178;2023-04-02T04:54:47;101901.94;;;16.87;48.25
46710;BME280;32442;51.514;-0.178;2023-04-02T04:57:18;101905.56;;;16.87;48.09
46710;BME280;32442;51.514;-0.178;2023-04-02T04:59:48;101913.09;;;16.87;48.12
46710;BME280;32442;51.514;-0.178;2023-04-02T05:02:22;101917.81;;;16.86;48.12
46710;BME280;32442;51.514;-0.178;2023-04-02T05:04:52;101918.91;;;16.85;48.18
46710;BME280;32442;51.514;-0.178;2023-04-02T05:17:50;101936.03;;;16.89;47.90
46710;BME280;32442;51.514;-0.178;2023-04-02T05:25:34;101951.31;;;16.86;48.09
46710;BME280;32442;51.514;-0.178;2023-04-02T05:28:06;101967.22;;;16.86;48.42
46710;BME280;32442;51.514;-0.178;2023-04-02T05:33:17;101975.09;;;16.89;47.79
46710;BME280;32442;51.514;-0.178;2023-04-02T05:35:46;101971.47;;;16.88;47.91
46710;BME280;32442;51.514;-0.178;2023-04-02T05:38:17;101986.75;;;16.86;47.92
46710;BME280;32442;51.514;-0.178;2023-04-02T05:40:45;101984.56;;;16.88;48.27
46710;BME280;32442;51.514;-0.178;2023-04-02T05:43:14;101991.78;;;16.84;48.22
46710;BME280;32442;51.514;-0.178;2023-04-02T05:45:43;102004.63;;;16.85;48.06
46710;BME280;32442;51.514;-0.178;2023-04-02T05:50:49;102010.69;;;16.82;48.00
46710;BME280;32442;51.514;-0.178;2023-04-02T05:53:20;102019.94;;;16.82;47.97
46710;BME280;32442;51.514;-0.178;2023-04-02T05:55:50;102022.97;;;16.81;48.25
46710;BME280;32442;51.514;-0.178;2023-04-02T05:58:21;102030.25;;;16.82;48.22
46710;BME280;32442;51.514;-0.178;2023-04-02T06:00:59;102038.03;;;16.80;48.21
46710;BME280;32442;51.514;-0.178;2023-04-02T06:06:10;102051.47;;;16.83;48.14
46710;BME280;32442;51.514;-0.178;2023-04-02T06:08:41;102045.91;;;16.83;47.92
46710;BME280;32442;51.514;-0.178;2023-04-02T06:11:12;102051.72;;;16.81;48.09
46710;BME280;32442;51.514;-0.178;2023-04-02T06:13:39;102054.78;;;16.80;47.86
46710;BME280;32442;51.514;-0.178;2023-04-02T06:16:06;102061.53;;;16.84;48.02
46710;BME280;32442;51.514;-0.178;2023-04-02T06:18:34;102064.00;;;16.80;47.82
46710;BME280;32442;51.514;-0.178;2023-04-02T06:21:02;102071.53;;;16.80;48.10
46710;BME280;32442;51.514;-0.178;2023-04-02T06:26:15;102071.78;;;16.78;47.87
46710;BME280;32442;51.514;-0.178;2023-04-02T06:28:45;102074.91;;;16.82;47.73
46710;BME280;32442;51.514;-0.178;2023-04-02T06:31:23;102079.63;;;16.81;47.60
46710;BME280;32442;51.514;-0.178;2023-04-02T06:33:51;102090.22;;;16.79;47.80
46710;BME280;32442;51.514;-0.178;2023-04-02T06:36:20;102093.00;;;16.79;48.10
46710;BME280;32442;51.514;-0.178;2023-04-02T06:38:48;102096.38;;;16.81;47.81
46710;BME280;32442;51.514;-0.178;2023-04-02T06:41:18;102097.50;;;16.80;47.93
46710;BME280;32442;51.514;-0.178;2023-04-02T06:43:50;102097.50;;;16.80;47.85
46710;BME280;32442;51.514;-0.178;2023-04-02T06:48:46;102105.78;;;16.75;47.56
46710;BME280;32442;51.514;-0.178;2023-04-02T06:51:14;102097.13;;;16.77;47.56
46710;BME280;32442;51.514;-0.178;2023-04-02T06:53:43;102103.56;;;16.77;47.92
46710;BME280;32442;51.514;-0.178;2023-04-02T06:58:47;102109.75;;;16.79;47.66
46710;BME280;32442;51.514;-0.178;2023-04-02T07:01:21;102120.31;;;16.77;47.53
46710;BME280;32442;51.514;-0.178;2023-04-02T07:03:49;102127.59;;;16.78;47.71
46710;BME280;32442;51.514;-0.178;2023-04-02T07:06:18;102140.94;;;16.76;47.95
46710;BME280;32442;51.514;-0.178;2023-04-02T07:08:45;102136.81;;;16.79;47.67
46710;BME280;32442;51.514;-0.178;2023-04-02T07:11:14;102137.34;;;16.76;47.81
46710;BME280;32442;51.514;-0.178;2023-04-02T07:13:46;102147.66;;;16.75;47.53
46710;BME280;32442;51.514;-0.178;2023-04-02T07:16:17;102154.31;;;16.74;47.71
46710;BME280;32442;51.514;-0.178;2023-04-02T07:18:44;102163.78;;;16.73;47.38
46710;BME280;32442;51.514;-0.178;2023-04-02T07:21:12;102163.28;;;16.76;47.28
46710;BME280;32442;51.514;-0.178;2023-04-02T07:23:39;102168.03;;;16.76;47.33
46710;BME280;32442;51.514;-0.178;2023-04-02T07:26:06;102168.50;;;16.73;47.35
46710;BME280;32442;51.514;-0.178;2023-04-02T07:28:33;102162.94;;;16.73;47.72
46710;BME280;32442;51.514;-0.178;2023-04-02T07:31:00;102167.94;;;16.71;47.54
46710;BME280;32442;51.514;-0.178;2023-04-02T07:33:28;102177.50;;;16.75;47.50
46710;BME280;32442;51.514;-0.178;2023-04-02T07:35:56;102174.09;;;16.73;47.67
46710;BME280;32442;51.514;-0.178;2023-04-02T07:38:23;102169.59;;;16.72;47.38
46710;BME280;32442;51.514;-0.178;2023-04-02T07:40:50;102175.19;;;16.72;47.43
46710;BME280;32442;51.514;-0.178;2023-04-02T07:43:17;102183.84;;;16.70;47.39
46710;BME280;32442;51.514;-0.178;2023-04-02T07:45:44;102182.97;;;16.70;47.32
46710;BME280;32442;51.514;-0.178;2023-04-02T07:48:12;102185.25;;;16.73;47.57
46710;BME280;32442;51.514;-0.178;2023-04-02T07:50:39;102195.84;;;16.71;47.40
46710;BME280;32442;51.514;-0.178;2023-04-02T07:53:06;102203.69;;;16.74;47.41
46710;BME280;32442;51.514;-0.178;2023-04-02T07:55:34;102188.06;;;16.73;47.55
46710;BME280;32442;51.514;-0.178;2023-04-02T07:58:02;102203.69;;;16.74;47.39
46710;BME280;32442;51.514;-0.178;2023-04-02T08:00:29;102201.75;;;16.74;47.22
46710;BME280;32442;51.514;-0.178;2023-04-02T08:02:56;102210.66;;;16.71;47.50
46710;BME280;32442;51.514;-0.178;2023-04-02T08:05:26;102220.44;;;16.74;47.32
46710;BME280;32442;51.514;-0.178;2023-04-02T08:07:53;102220.59;;;16.67;47.58
46710;BME280;32442;51.514;-0.178;2023-04-02T08:10:21;102221.44;;;16.68;47.19
46710;BME280;32442;51.514;-0.178;2023-04-02T08:12:48;102225.41;;;16.72;47.08
46710;BME280;32442;51.514;-0.178;2023-04-02T08:15:15;102233.56;;;16.73;47.22
46710;BME280;32442;51.514;-0.178;2023-04-02T08:17:42;102242.44;;;16.70;47.16
46710;BME280;32442;51.514;-0.178;2023-04-02T08:20:18;102236.84;;;16.70;47.08
46710;BME280;32442;51.514;-0.178;2023-04-02T08:22:45;102247.75;;;16.72;47.26
46710;BME280;32442;51.514;-0.178;2023-04-02T08:25:13;102248.03;;;16.70;47.31
46710;BME280;32442;51.514;-0.178;2023-04-02T08:27:40;102253.84;;;16.69;47.02
46710;BME280;32442;51.514;-0.178;2023-04-02T08:30:07;102254.44;;;16.71;47.33
46710;BME280;32442;51.514;-0.178;2023-04-02T08:32:35;102253.84;;;16.69;47.14
46710;BME280;32442;51.514;-0.178;2023-04-02T08:35:02;102257.47;;;16.69;47.22
46710;BME280;32442;51.514;-0.178;2023-04-02T08:37:29;102261.97;;;16.70;47.25
46710;BME280;32442;51.514;-0.178;2023-04-02T08:39:56;102272.03;;;16.71;47.24
46710;BME280;32442;51.514;-0.178;2023-04-02T08:45:01;102272.28;;;16.70;47.24
46710;BME280;32442;51.514;-0.178;2023-04-02T08:47:49;102280.03;;;16.68;47.37
46710;BME280;32442;51.514;-0.178;2023-04-02T08:52:58;102287.56;;;16.67;46.88
46710;BME280;32442;51.514;-0.178;2023-04-02T09:05:40;102310.50;;;16.69;47.35
46710;BME280;32442;51.514;-0.178;2023-04-02T09:08:14;102315.84;;;16.71;47.11
46710;BME280;32442;51.514;-0.178;2023-04-02T09:13:22;102317.78;;;16.70;47.47
46710;BME280;32442;51.514;-0.178;2023-04-02T09:15:52;102317.78;;;16.70;47.10
46710;BME280;32442;51.514;-0.178;2023-04-02T09:18:22;102320.81;;;16.69;47.37
46710;BME280;32442;51.514;-0.178;2023-04-02T09:20:49;102316.09;;;16.69;46.98
46710;BME280;32442;51.514;-0.178;2023-04-02T09:23:18;102319.72;;;16.70;47.35
46710;BME280;32442;51.514;-0.178;2023-04-02T09:25:48;102323.09;;;16.72;47.01
46710;BME280;32442;51.514;-0.178;2023-04-02T09:28:29;102329.19;;;16.69;47.30
46710;BME280;32442;51.514;-0.178;2023-04-02T09:36:16;102336.81;;;16.73;47.02
46710;BME280;32442;51.514;-0.178;2023-04-02T09:41:21;102336.81;;;16.73;46.93
46710;BME280;32442;51.514;-0.178;2023-04-02T09:44:10;102333.91;;;16.68;47.01
46710;BME280;32442;51.514;-0.178;2023-04-02T09:46:40;102347.13;;;16.73;46.97
46710;BME280;32442;51.514;-0.178;2023-04-02T09:49:14;102344.00;;;16.69;47.08
46710;BME280;32442;51.514;-0.178;2023-04-02T09:51:41;102344.00;;;16.69;47.18
46710;BME280;32442;51.514;-0.178;2023-04-02T09:54:15;102346.78;;;16.69;46.98
46710;BME280;32442;51.514;-0.178;2023-04-02T09:59:19;102351.00;;;16.72;47.10
46710;BME280;32442;51.514;-0.178;2023-04-02T10:07:04;102378.91;;;16.72;46.83
46710;BME280;32442;51.514;-0.178;2023-04-02T10:09:34;102389.84;;;16.73;47.03
46710;BME280;32442;51.514;-0.178;2023-04-02T10:12:03;102391.78;;;16.73;47.08
46710;BME280;32442;51.514;-0.178;2023-04-02T10:14:34;102383.91;;;16.70;47.25
46710;BME280;32442;51.514;-0.178;2023-04-02T10:19:35;102397.13;;;16.74;46.75
46710;BME280;32442;51.514;-0.178;2023-04-02T10:22:05;102402.47;;;16.76;46.64
46710;BME280;32442;51.514;-0.178;2023-04-02T10:24:35;102406.34;;;16.75;46.85
46710;BME280;32442;51.514;-0.178;2023-04-02T10:29:48;102412.78;;;16.75;47.10
46710;BME280;32442;51.514;-0.178;2023-04-02T10:32:19;102418.59;;;16.74;46.85
46710;BME280;32442;51.514;-0.178;2023-04-02T10:34:52;102413.00;;;16.74;46.69
46710;BME280;32442;51.514;-0.178;2023-04-02T10:37:36;102419.09;;;16.71;46.76
46710;BME280;32442;51.514;-0.178;2023-04-02T10:42:47;102433.41;;;16.74;47.05
46710;BME280;32442;51.514;-0.178;2023-04-02T10:47:54;102436.31;;;16.79;46.67
46710;BME280;32442;51.514;-0.178;2023-04-02T10:53:07;102428.66;;;16.75;46.72
46710;BME280;32442;51.514;-0.178;2023-04-02T10:55:38;102433.41;;;16.74;46.80
46710;BME280;32442;51.514;-0.178;2023-04-02T10:58:15;102431.56;;;16.80;46.50
46710;BME280;32442;51.514;-0.178;2023-04-02T11:00:45;102427.66;;;16.81;46.52
46710;BME280;32442;51.514;-0.178;2023-04-02T11:03:13;102426.00;;;16.80;46.72
46710;BME280;32442;51.514;-0.178;2023-04-02T11:08:16;102429.88;;;16.79;46.78
46710;BME280;32442;51.514;-0.178;2023-04-02T11:10:46;102433.25;;;16.81;46.85
46710;BME280;32442;51.514;-0.178;2023-04-02T11:13:17;102427.94;;;16.79;46.92
46710;BME280;32442;51.514;-0.178;2023-04-02T11:15:46;102436.88;;;16.81;46.70
46710;BME280;32442;51.514;-0.178;2023-04-02T11:18:19;102429.38;;;16.82;46.45
46710;BME280;32442;51.514;-0.178;2023-04-02T11:23:16;102432.50;;;16.85;46.65
46710;BME280;32442;51.514;-0.178;2023-04-02T11:25:44;102445.63;;;16.85;46.38
46710;BME280;32442;51.514;-0.178;2023-04-02T11:28:18;102446.97;;;16.82;46.63
46710;BME280;32442;51.514;-0.178;2023-04-02T11:30:50;102441.38;;;16.82;46.55
46710;BME280;32442;51.514;-0.178;2023-04-02T11:33:36;102443.09;;;16.83;46.39
46710;BME280;32442;51.514;-0.178;2023-04-02T11:38:47;102453.41;;;16.83;46.37
46710;BME280;32442;51.514;-0.178;2023-04-02T11:41:58;102458.97;;;16.83;46.55
46710;BME280;32442;51.514;-0.178;2023-04-02T11:44:04;102466.50;;;16.82;46.63
46710;BME280;32442;51.514;-0.178;2023-04-02T11:46:34;102462.84;;;16.82;46.59
46710;BME280;32442;51.514;-0.178;2023-04-02T11:54:19;102472.94;;;16.83;46.56
46710;BME280;32442;51.514;-0.178;2023-04-02T11:56:51;102478.28;;;16.84;46.34
46710;BME280;32442;51.514;-0.178;2023-04-02T12:09:44;102488.31;;;16.85;46.63
46710;BME280;32442;51.514;-0.178;2023-04-02T12:12:15;102487.50;;;16.85;46.64
46710;BME280;32442;51.514;-0.178;2023-04-02T12:14:44;102489.19;;;16.86;46.37
46710;BME280;32442;51.514;-0.178;2023-04-02T12:19:50;102494.63;;;16.93;46.22
46710;BME280;32442;51.514;-0.178;2023-04-02T12:22:22;102489.06;;;16.93;46.40
46710;BME280;32442;51.514;-0.178;2023-04-02T12:24:50;102504.94;;;16.92;46.23
46710;BME280;32442;51.514;-0.178;2023-04-02T12:27:20;102506.38;;;16.95;46.57
46710;BME280;32442;51.514;-0.178;2023-04-02T12:29:49;102503.97;;;16.98;46.20
46710;BME280;32442;51.514;-0.178;2023-04-02T12:32:19;102495.94;;;17.02;46.39
46710;BME280;32442;51.514;-0.178;2023-04-02T12:34:47;102508.56;;;17.04;46.42
46710;BME280;32442;51.514;-0.178;2023-04-02T12:37:23;102509.75;;;17.08;46.21
46710;BME280;32442;51.514;-0.178;2023-04-02T12:39:52;102505.88;;;17.09;46.05
46710;BME280;32442;51.514;-0.178;2023-04-02T12:44:56;102507.22;;;17.07;46.49
46710;BME280;32442;51.514;-0.178;2023-04-02T12:47:23;102517.91;;;17.10;46.06
46710;BME280;32442;51.514;-0.178;2023-04-02T12:49:51;102522.38;;;17.11;46.31
46710;BME280;32442;51.514;-0.178;2023-04-02T12:52:18;102524.69;;;17.14;46.22
46710;BME280;32442;51.514;-0.178;2023-04-02T12:57:29;102518.25;;;17.13;45.91
46710;BME280;32442;51.514;-0.178;2023-04-02T12:59:58;102513.50;;;17.14;46.09
46710;BME280;32442;51.514;-0.178;2023-04-02T13:02:32;102520.56;;;17.16;46.08
46710;BME280;32442;51.514;-0.178;2023-04-02T13:05:09;102519.72;;;17.16;46.10
46710;BME280;32442;51.514;-0.178;2023-04-02T13:07:37;102519.72;;;17.16;46.12
46710;BME280;32442;51.514;-0.178;2023-04-02T13:10:05;102522.22;;;17.17;45.87
46710;BME280;32442;51.514;-0.178;2023-04-02T13:12:53;102527.34;;;17.20;45.86
46710;BME280;32442;51.514;-0.178;2023-04-02T13:15:21;102532.94;;;17.20;46.07
46710;BME280;32442;51.514;-0.178;2023-04-02T13:22:58;102523.94;;;17.18;46.19
46710;BME280;32442;51.514;-0.178;2023-04-02T13:25:28;102534.63;;;17.21;46.19
46710;BME280;32442;51.514;-0.178;2023-04-02T13:27:56;102528.19;;;17.21;46.39
46710;BME280;32442;51.514;-0.178;2023-04-02T13:30:24;102537.06;;;17.18;46.14
46710;BME280;32442;51.514;-0.178;2023-04-02T13:32:51;102534.03;;;17.19;46.00
46710;BME280;32442;51.514;-0.178;2023-04-02T13:35:18;102536.81;;;17.19;46.28
46710;BME280;32442;51.514;-0.178;2023-04-02T13:37:46;102534.38;;;17.23;45.80
46710;BME280;32442;51.514;-0.178;2023-04-02T13:40:15;102528.19;;;17.21;46.18
46710;BME280;32442;51.514;-0.178;2023-04-02T13:42:42;102529.63;;;17.23;45.80
46710;BME280;32442;51.514;-0.178;2023-04-02T13:45:15;102536.94;;;17.24;46.06
46710;BME280;32442;51.514;-0.178;2023-04-02T13:47:45;102534.38;;;17.23;46.16
46710;BME280;32442;51.514;-0.178;2023-04-02T13:50:20;102524.38;;;17.27;46.04
46710;BME280;32442;51.514;-0.178;2023-04-02T13:52:49;102530.59;;;17.29;45.64
46710;BME280;32442;51.514;-0.178;2023-04-02T13:55:16;102524.16;;;17.28;45.70
46710;BME280;32442;51.514;-0.178;2023-04-02T13:57:44;102529.50;;;17.30;45.65
46710;BME280;32442;51.514;-0.178;2023-04-02T14:00:12;102523.91;;;17.30;45.65
46710;BME280;32442;51.514;-0.178;2023-04-02T14:02:40;102522.44;;;17.27;45.87
46710;BME280;32442;51.514;-0.178;2023-04-02T14:05:13;102530.59;;;17.29;45.95
46710;BME280;32442;51.514;-0.178;2023-04-02T14:07:53;102535.56;;;17.27;45.79
46710;BME280;32442;51.514;-0.178;2023-04-02T14:28:01;102538.53;;;17.20;45.90
46710;BME280;32442;51.514;-0.178;2023-04-02T14:35:43;102529.63;;;17.23;46.06
46710;BME280;32442;51.514;-0.178;2023-04-02T14:38:13;102539.09;;;17.22;46.13
46710;BME280;32442;51.514;-0.178;2023-04-02T14:43:16;102536.81;;;17.19;46.32
46710;BME280;32442;51.514;-0.178;2023-04-02T14:50:52;102529.88;;;17.22;45.87
46710;BME280;32442;51.514;-0.178;2023-04-02T14:53:24;102533.78;;;17.21;46.06
46710;BME280;32442;51.514;-0.178;2023-04-02T14:55:53;102530.72;;;17.22;46.04
46710;BME280;32442;51.514;-0.178;2023-04-02T14:58:25;102530.50;;;17.24;46.12
46710;BME280;32442;51.514;-0.178;2023-04-02T15:01:02;102532.06;;;17.20;45.84
46710;BME280;32442;51.514;-0.178;2023-04-02T15:03:37;102532.94;;;17.20;46.24
46710;BME280;32442;51.514;-0.178;2023-04-02T15:06:09;102536.31;;;17.22;46.05
46710;BME280;32442;51.514;-0.178;2023-04-02T15:11:35;102538.00;;;17.23;46.14
46710;BME280;32442;51.514;-0.178;2023-04-02T15:16:31;102522.63;;;17.21;46.14
46710;BME280;32442;51.514;-0.178;2023-04-02T15:18:59;102526.25;;;17.21;45.99
46710;BME280;32442;51.514;-0.178;2023-04-02T15:24:25;102530.72;;;17.22;45.94
46710;BME280;32442;51.514;-0.178;2023-04-02T15:29:52;102525.13;;;17.22;46.14
46710;BME280;32442;51.514;-0.178;2023-04-02T15:37:30;102517.88;;;17.21;45.99
46710;BME280;32442;51.514;-0.178;2023-04-02T15:40:06;102527.06;;;17.22;46.25
46710;BME280;32442;51.514;-0.178;2023-04-02T15:42:44;102520.16;;;17.24;46.06
46710;BME280;32442;51.514;-0.178;2023-04-02T15:52:48;102523.31;;;17.28;46.06
46710;BME280;32442;51.514;-0.178;2023-04-02T16:00:25;102530.72;;;17.22;45.83
46710;BME280;32442;51.514;-0.178;2023-04-02T16:15:50;102523.19;;;17.23;46.00
46710;BME280;32442;51.514;-0.178;2023-04-02T16:18:23;102523.19;;;17.23;45.94
46710;BME280;32442;51.514;-0.178;2023-04-02T16:20:53;102527.47;;;17.25;45.99
46710;BME280;32442;51.514;-0.178;2023-04-02T16:23:27;102530.72;;;17.22;45.85
46710;BME280;32442;51.514;-0.178;2023-04-02T16:26:00;102532.44;;;17.23;46.08
46710;BME280;32442;51.514;-0.178;2023-04-02T16:28:33;102547.47;;;17.22;46.28
46710;BME280;32442;51.514;-0.178;2023-04-02T16:33:43;102532.19;;;17.25;46.27
46710;BME280;32442;51.514;-0.178;2023-04-02T16:38:56;102528.03;;;17.27;45.74
46710;BME280;32442;51.514;-0.178;2023-04-02T16:41:32;102538.97;;;17.29;45.73
46710;BME280;32442;51.514;-0.178;2023-04-02T16:44:06;102542.63;;;17.29;45.91
46710;BME280;32442;51.514;-0.178;2023-04-02T16:49:20;102551.47;;;17.26;46.04
46710;BME280;32442;51.514;-0.178;2023-04-02T17:09:49;102585.38;;;17.30;45.96
46710;BME280;32442;51.514;-0.178;2023-04-02T17:17:12;102593.38;;;17.26;45.72
46710;BME280;32442;51.514;-0.178;2023-04-02T17:19:41;102590.34;;;17.28;45.59
46710;BME280;32442;51.514;-0.178;2023-04-02T17:22:12;102604.94;;;17.30;45.88
46710;BME280;32442;51.514;-0.178;2023-04-02T17:24:42;102602.59;;;17.27;45.72
46710;BME280;32442;51.514;-0.178;2023-04-02T17:27:16;102607.34;;;17.26;45.49
46710;BME280;32442;51.514;-0.178;2023-04-02T17:29:47;102606.25;;;17.27;45.57